Map

Track Data

SID SEASON NUMBER BASIN SUBBASIN NAME ISO_TIME NATURE LAT LON WMO_WIND WMO_PRES WMO_AGENCY TRACK_TYPE DIST2LAND LANDFALL IFLAG USA_AGENCY USA_ATCF_ID USA_LAT USA_LON USA_RECORD USA_STATUS USA_WIND USA_PRES USA_SSHS USA_R34_NE USA_R34_SE USA_R34_SW USA_R34_NW USA_R50_NE USA_R50_SE USA_R50_SW USA_R50_NW USA_R64_NE USA_R64_SE USA_R64_SW USA_R64_NW USA_POCI USA_ROCI USA_RMW USA_EYE TOKYO_LAT TOKYO_LON TOKYO_GRADE TOKYO_WIND TOKYO_PRES TOKYO_R50_DIR TOKYO_R50_LONG TOKYO_R50_SHORT TOKYO_R30_DIR TOKYO_R30_LONG TOKYO_R30_SHORT TOKYO_LAND CMA_LAT CMA_LON CMA_CAT CMA_WIND CMA_PRES HKO_LAT HKO_LON HKO_CAT HKO_WIND HKO_PRES NEWDELHI_LAT NEWDELHI_LON NEWDELHI_GRADE NEWDELHI_WIND NEWDELHI_PRES NEWDELHI_CI NEWDELHI_DP NEWDELHI_POCI REUNION_LAT REUNION_LON REUNION_TYPE REUNION_WIND REUNION_PRES REUNION_TNUM REUNION_CI REUNION_RMW REUNION_R34_NE REUNION_R34_SE REUNION_R34_SW REUNION_R34_NW REUNION_R50_NE REUNION_R50_SE REUNION_R50_SW REUNION_R50_NW REUNION_R64_NE REUNION_R64_SE REUNION_R64_SW REUNION_R64_NW BOM_LAT BOM_LON BOM_TYPE BOM_WIND BOM_PRES BOM_TNUM BOM_CI BOM_RMW BOM_R34_NE BOM_R34_SE BOM_R34_SW BOM_R34_NW BOM_R50_NE BOM_R50_SE BOM_R50_SW BOM_R50_NW BOM_R64_NE BOM_R64_SE BOM_R64_SW BOM_R64_NW BOM_ROCI BOM_POCI BOM_EYE BOM_POS_METHOD BOM_PRES_METHOD NADI_LAT NADI_LON NADI_CAT NADI_WIND NADI_PRES WELLINGTON_LAT WELLINGTON_LON WELLINGTON_WIND WELLINGTON_PRES DS824_LAT DS824_LON DS824_STAGE DS824_WIND DS824_PRES TD9636_LAT TD9636_LON TD9636_STAGE TD9636_WIND TD9636_PRES TD9635_LAT TD9635_LON TD9635_WIND TD9635_PRES TD9635_ROCI NEUMANN_LAT NEUMANN_LON NEUMANN_CLASS NEUMANN_WIND NEUMANN_PRES MLC_LAT MLC_LON MLC_CLASS MLC_WIND MLC_PRES USA_GUST BOM_GUST BOM_GUST_PER REUNION_GUST REUNION_GUST_PER USA_SEAHGT USA_SEARAD_NE USA_SEARAD_SE USA_SEARAD_SW USA_SEARAD_NW STORM_SPEED STORM_DIR
1978276N32329 1978 101 NA NA IRMA 1978-10-02 12:00:00 SS 31.7000 -31.5000 30 1010 hurdat_atl main 1462 1462 O_____________ hurdat_atl AL191978 31.7000 -31.5000 SD 30 1010 -2 3 0
1978276N32329 1978 101 NA NA IRMA 1978-10-02 15:00:00 SS 31.8500 -31.5000 main 1466 1466 P_____________ AL191978 31.8500 -31.5000 SD 30 1008 -2 3 0
1978276N32329 1978 101 NA NA IRMA 1978-10-02 18:00:00 SS 32.0000 -31.5000 30 1006 hurdat_atl main 1469 1469 O_____________ hurdat_atl AL191978 32.0000 -31.5000 SD 30 1006 -2 3 0
1978276N32329 1978 101 NA NA IRMA 1978-10-02 21:00:00 SS 32.1500 -31.5000 main 1474 1474 P_____________ AL191978 32.1500 -31.5000 SD 30 -2 3 0
1978276N32329 1978 101 NA NA IRMA 1978-10-03 00:00:00 SS 32.3000 -31.5000 30 hurdat_atl main 1476 1476 O_____________ hurdat_atl AL191978 32.3000 -31.5000 SD 30 -2 3 0
1978276N32329 1978 101 NA NA IRMA 1978-10-03 03:00:00 SS 32.4500 -31.5000 main 1482 1479 P_____________ AL191978 32.4500 -31.5000 SD 30 -2 3 0
1978276N32329 1978 101 NA NA IRMA 1978-10-03 06:00:00 SS 32.6000 -31.5000 30 hurdat_atl main 1484 1484 O_____________ hurdat_atl AL191978 32.6000 -31.5000 SD 30 -2 3 3
1978276N32329 1978 101 NA NA IRMA 1978-10-03 09:00:00 SS 32.7350 -31.5000 main 1487 1487 P_____________ AL191978 32.7350 -31.5000 SD 30 -2 3 0
1978276N32329 1978 101 NA NA IRMA 1978-10-03 12:00:00 SS 32.9000 -31.5000 30 hurdat_atl main 1493 1493 O_____________ hurdat_atl AL191978 32.9000 -31.5000 SD 30 -2 4 0
1978276N32329 1978 101 NA NA IRMA 1978-10-03 15:00:00 SS 33.1350 -31.5000 main 1500 1500 P_____________ AL191978 33.1350 -31.5000 SD 30 -2 5 2
1978276N32329 1978 101 NA NA IRMA 1978-10-03 18:00:00 SS 33.4000 -31.5000 30 hurdat_atl main 1510 1510 O_____________ hurdat_atl AL191978 33.4000 -31.5000 SD 30 -2 5 3
1978276N32329 1978 101 NA NA IRMA 1978-10-03 21:00:00 SS 33.6425 -31.5000 main 1517 1517 P_____________ AL191978 33.6425 -31.5000 SD 30 -2 5 2
1978276N32329 1978 101 NA NA IRMA 1978-10-04 00:00:00 SS 33.9000 -31.5000 30 hurdat_atl main 1528 1528 O_____________ hurdat_atl AL191978 33.9000 -31.5000 SD 30 -2 6 0
1978276N32329 1978 101 NA NA IRMA 1978-10-04 03:00:00 SS 34.1925 -31.5000 main 1540 1540 P_____________ AL191978 34.1925 -31.5000 SD 30 -2 6 0
1978276N32329 1978 101 NA NA IRMA 1978-10-04 06:00:00 SS 34.5000 -31.5000 30 hurdat_atl main 1552 1552 O_____________ hurdat_atl AL191978 34.5000 -31.5000 SD 30 -2 6 359
1978276N32329 1978 101 NA NA IRMA 1978-10-04 09:00:00 SS 34.7925 -31.5074 main 1565 1565 P_____________ AL191978 34.7925 -31.5074 SD 35 -2 6 0
1978276N32329 1978 101 NA NA IRMA 1978-10-04 12:00:00 TS 35.1000 -31.5000 40 1004 hurdat_atl main 1579 1579 O_____________ hurdat_atl AL191978 35.1000 -31.5000 TS 40 1004 0 6 4
1978276N32329 1978 101 NA NA IRMA 1978-10-04 15:00:00 TS 35.4275 -31.4649 main 1593 1590 P_____________ AL191978 35.4275 -31.4649 TS 42 1003 0 7 6
1978276N32329 1978 101 NA NA IRMA 1978-10-04 18:00:00 TS 35.8000 -31.4000 45 1002 hurdat_atl main 1605 1605 O_____________ hurdat_atl AL191978 35.8000 -31.4000 TS 45 1002 0 8 6
1978276N32329 1978 101 NA NA IRMA 1978-10-04 21:00:00 TS 36.1898 -31.3512 main 1626 1618 P_____________ AL191978 36.1898 -31.3512 TS 45 1001 0 9 10
1978276N32329 1978 101 NA NA IRMA 1978-10-05 00:00:00 TS 36.7000 -31.2000 45 1001 hurdat_atl main 1638 1638 O_____________ hurdat_atl AL191978 36.7000 -31.2000 TS 45 1001 0 12 17
1978276N32329 1978 101 NA NA IRMA 1978-10-05 03:00:00 TS 37.3819 -30.9033 main 1657 1656 P_____________ AL191978 37.3819 -30.9033 TS 42 1001 0 16 23
1978276N32329 1978 101 NA NA IRMA 1978-10-05 06:00:00 TS 38.2000 -30.4000 40 1002 hurdat_atl main 1673 1673 O_____________ hurdat_atl AL191978 38.2000 -30.4000 TS 40 1002 0 19 30
1978276N32329 1978 101 NA NA IRMA 1978-10-05 09:00:00 TS 38.9864 -29.7278 main 1682 1659 P_____________ AL191978 38.9864 -29.7278 TS 40 0 22 35
1978276N32329 1978 101 NA NA IRMA 1978-10-05 12:00:00 TS 40.0000 -28.8000 40 hurdat_atl main 1647 1520 O_____________ hurdat_atl AL191978 40.0000 -28.8000 TS 40 0 29 34
1978276N32329 1978 101 NA NA IRMA 1978-10-05 15:00:00 TS 41.3916 -27.5987 main 1509 1376 P_____________ AL191978 41.3916 -27.5987 TS 40 0 36 33
1978276N32329 1978 101 NA NA IRMA 1978-10-05 18:00:00 ET 43.0000 -26.2000 40 hurdat_atl main 1367 O_____________ hurdat_atl AL191978 43.0000 -26.2000 EX 40 -4 38 32

About IBTrACS Database

This database is a web-friendly format of International Best Track Archive for Climate Stewardship (IBTrACS), a global best track data archive curated by NOAA dating back to 1842.

Updated: 2021-12-03